createdAt,value
2023-04-26T00:04:30.204Z,3.40
2023-04-26T00:14:34.268Z,4.10
2023-04-26T00:24:40.158Z,3.90
2023-04-26T00:34:43.742Z,4.00
2023-04-26T00:44:50.570Z,5.20
2023-04-26T00:54:55.034Z,5.20
2023-04-26T01:05:02.591Z,4.80
2023-04-26T01:15:07.632Z,4.00
2023-04-26T01:25:13.735Z,4.30
2023-04-26T01:35:19.738Z,4.40
2023-04-26T01:45:25.376Z,4.90
2023-04-26T01:55:51.313Z,7.40
2023-04-26T02:05:54.879Z,4.30
2023-04-26T02:16:02.109Z,4.40
2023-04-26T02:26:05.800Z,4.80
2023-04-26T02:36:09.514Z,4.50
2023-04-26T02:46:14.156Z,4.70
2023-04-26T02:56:20.149Z,4.90
2023-04-26T03:06:23.916Z,6.00
2023-04-26T03:16:30.603Z,5.00
2023-04-26T03:26:36.122Z,5.00
2023-04-26T03:36:40.011Z,4.90
2023-04-26T03:46:48.050Z,4.60
2023-04-26T03:56:53.113Z,4.70
2023-04-26T04:06:57.252Z,4.20
2023-04-26T04:17:05.698Z,4.50
2023-04-26T04:27:09.352Z,4.30
2023-04-26T04:37:18.814Z,4.50
2023-04-26T04:47:24.592Z,4.20
2023-04-26T04:57:28.633Z,4.10
2023-04-26T05:07:33.925Z,3.50
2023-04-26T05:17:38.852Z,3.80
2023-04-26T05:27:54.437Z,3.60
2023-04-26T05:38:26.120Z,3.50
2023-04-26T05:48:30.199Z,3.30
2023-04-26T05:58:34.272Z,3.20
2023-04-26T06:08:41.687Z,3.30
2023-04-26T06:18:46.494Z,3.20
2023-04-26T06:28:50.205Z,3.20
2023-04-26T06:38:55.467Z,2.70
2023-04-26T06:48:59.117Z,2.50
2023-04-26T06:59:10.028Z,2.60
2023-04-26T07:10:19.026Z,2.60
2023-04-26T07:20:24.443Z,2.40
2023-04-26T07:30:28.038Z,2.30
2023-04-26T07:40:52.444Z,2.50
2023-04-26T07:50:57.210Z,2.40
2023-04-26T08:01:02.769Z,2.20
2023-04-26T08:11:10.334Z,2.20
2023-04-26T08:22:14.646Z,1.60
2023-04-26T08:32:18.289Z,2.20
2023-04-26T08:42:28.263Z,2.30
2023-04-26T08:52:33.192Z,3.20
2023-04-26T09:02:40.140Z,2.60
2023-04-26T09:12:44.036Z,2.40
2023-04-26T09:22:49.328Z,3.10
2023-04-26T09:33:02.768Z,2.20
2023-04-26T09:43:13.779Z,1.90
2023-04-26T09:53:33.614Z,2.00
2023-04-26T10:03:38.458Z,2.10
2023-04-26T10:13:44.735Z,2.10
2023-04-26T10:23:50.792Z,2.00
2023-04-26T10:34:25.042Z,1.90
2023-04-26T10:44:59.783Z,2.10
2023-04-26T10:55:06.488Z,1.90
2023-04-26T11:05:32.249Z,1.80
2023-04-26T11:15:36.367Z,1.70
2023-04-26T11:25:42.560Z,2.10
2023-04-26T11:35:53.888Z,1.70
2023-04-26T11:46:02.087Z,2.00
2023-04-26T11:56:16.904Z,2.00
2023-04-26T12:06:22.982Z,2.00
2023-04-26T12:16:27.253Z,2.50
2023-04-26T12:26:45.272Z,1.50
2023-04-26T12:36:50.606Z,2.00
2023-04-26T12:46:54.372Z,1.70
2023-04-26T12:56:58.018Z,1.60
2023-04-26T13:07:01.899Z,1.90
2023-04-26T13:17:09.868Z,2.00
2023-04-26T13:27:13.765Z,1.80
2023-04-26T13:37:20.303Z,1.80
2023-04-26T13:47:28.925Z,1.60
2023-04-26T13:57:32.588Z,3.00
2023-04-26T14:07:57.863Z,2.00
2023-04-26T14:18:01.520Z,1.90
2023-04-26T14:28:08.924Z,2.00
2023-04-26T14:38:12.607Z,2.00
2023-04-26T14:48:19.418Z,2.20
2023-04-26T14:58:26.429Z,2.10
2023-04-26T15:08:30.325Z,2.40
2023-04-26T15:18:39.379Z,2.50
2023-04-26T15:28:43.194Z,2.60
2023-04-26T15:38:50.051Z,2.70
2023-04-26T15:48:53.756Z,2.20
2023-04-26T15:58:59.455Z,2.50
2023-04-26T16:09:23.469Z,4.60
2023-04-26T16:19:29.551Z,2.60
2023-04-26T16:29:35.202Z,3.00
2023-04-26T16:39:38.992Z,3.40
2023-04-26T16:49:46.620Z,5.40
2023-04-26T16:59:51.827Z,3.00
2023-04-26T17:09:56.158Z,2.70
2023-04-26T17:20:04.333Z,2.80
2023-04-26T17:30:08.663Z,2.90
2023-04-26T17:40:12.642Z,2.60
2023-04-26T17:50:18.545Z,3.20
2023-04-26T18:00:24.190Z,4.00
2023-04-26T18:10:27.874Z,5.50
2023-04-26T18:20:37.078Z,3.60
2023-04-26T18:30:41.075Z,3.40
2023-04-26T18:40:48.089Z,3.60
2023-04-26T18:50:55.965Z,3.00
2023-04-26T19:00:59.575Z,2.80
2023-04-26T19:11:03.812Z,3.50
2023-04-26T19:21:15.337Z,3.40
2023-04-26T19:32:01.974Z,3.80
2023-04-26T19:42:11.624Z,4.40
2023-04-26T19:52:17.397Z,4.60
2023-04-26T20:02:22.775Z,4.30
2023-04-26T20:12:30.681Z,4.40
2023-04-26T20:22:36.472Z,4.50
2023-04-26T20:32:40.404Z,4.50
2023-04-26T20:42:44.086Z,4.80
2023-04-26T20:52:47.844Z,6.70
2023-04-26T21:02:53.539Z,5.90
2023-04-26T21:12:57.370Z,5.40
2023-04-26T21:23:06.979Z,5.10
2023-04-26T21:33:10.817Z,5.10
2023-04-26T21:43:19.004Z,5.70
2023-04-26T21:53:23.147Z,5.50
2023-04-26T22:03:30.729Z,5.50
2023-04-26T22:13:35.576Z,4.90
2023-04-26T22:23:39.320Z,5.20
2023-04-26T22:33:43.172Z,4.90
2023-04-26T22:43:53.219Z,4.50
2023-04-26T22:54:00.573Z,4.30
2023-04-26T23:04:05.414Z,4.30
2023-04-26T23:14:11.400Z,4.20
2023-04-26T23:24:15.135Z,4.00
2023-04-26T23:34:20.858Z,4.10
2023-04-26T23:44:26.767Z,3.80
2023-04-26T23:54:33.057Z,3.70
